Memphis, TN

2:14 AM CDT on September 30, 2016 (GMT -0500)
Midtown Memphis (OEM) | | Change Station

Elev 320 ft 35.13 °N, 89.97 °W | Updated 8 seconds ago

Scattered Clouds
Scattered Clouds
61.5 °F
Feels Like 61.5 °F
N
0.0
Wind Variable Wind from NNE
Gusts 7.0 mph

Today
High -- | Low -- °F
--% Chance of Precip.
Yesterday
High -- | Low -- °F
Precip. -- in
Pressure 30.10 in
Visibility 10.0 miles
Clouds Scattered Clouds 3000 ft
Dew Point 56 °F
Humidity 81%
Rainfall 0.00 in
Snow Depth Not available.
6:54 AM 6:44 PM
Waning Crescent, 0% visible
METAR KMEM 300654Z 34003KT 10SM SCT030 17/13 A3011 RMK AO2 SLP193 T01670128 $
Pressure 30.10 in
Visibility 10.0 miles
Clouds Scattered Clouds 3000 ft
Dew Point 56 °F
Humidity 81%
Rainfall 0.00 in
Snow Depth Not available.
6:54 AM 6:44 PM
Waning Crescent, 0% visible
METAR KMEM 300654Z 34003KT 10SM SCT030 17/13 A3011 RMK AO2 SLP193 T01670128 $

10-Day Weather Forecast

Almanac

Astronomy

Sep. 30, 2016 Rise Set
Actual Time
Civil Twilight
Nautical Twilight
Astronomical Twilight
Moon
Length of Visible Light
Length of Day
Tomorrow will be .
, % of the Moon is Illuminated

Today's Extremes

State Highs State Lows

Community

WunderPhotos

Upload Photos

1,942,668 photos uploaded!

WunderBlog® & News

Nearby

Air Quality

  Air Quality AQ Index Pollutant
Not available.

Snow Depth

Station Depth Elevation

Earthquake Activity

City Distance Mag. Time & Date
Minimum magnitude displayed is 2.5.

Coastal Water Temperatures

Place Temperature

Stations

Nearby Weather Stations

Station Location Temp. Windchill Dew Point Humidity Wind Precip. Elev Updated Type
                   

Watches & Warnings

There are currently no watches in effect.